Time;durP1;ratioP1;P1;durP2;ratioP2;P2;SDS_P1;SDS_P2;PMS_P1;PMS_P2;Temp;Humidity;BMP_temperature;BMP_pressure;BME280_temperature;BME280_humidity;BME280_pressure;Samples;Min_cycle;Max_cycle;Signal;HPM_P1;HPM_P2
2021/07/08 00:00:20;;;;;;;5.22;1.67;;;18.40;99.90;;;;;;4902442;29;20184;-95
2021/07/08 00:02:51;;;;;;;6.53;2.22;;;18.40;99.90;;;;;;4902581;29;20195;-95
2021/07/08 00:05:20;;;;;;;5.00;2.00;;;18.20;99.90;;;;;;4902819;29;20265;-95
2021/07/08 00:07:46;;;;;;;5.22;1.70;;;18.20;99.90;;;;;;4902912;29;20267;-95
2021/07/08 00:10:15;;;;;;;6.97;1.63;;;18.20;99.90;;;;;;4902875;29;20207;-95
2021/07/08 00:12:41;;;;;;;3.40;1.85;;;18.20;99.90;;;;;;4902716;29;20615;-95
2021/07/08 00:15:11;;;;;;;3.40;1.63;;;18.30;99.90;;;;;;4902895;29;20657;-94
2021/07/08 00:17:36;;;;;;;3.53;1.90;;;18.20;99.90;;;;;;4902654;29;20183;-95
2021/07/08 00:20:08;;;;;;;5.72;1.63;;;18.10;99.90;;;;;;4902756;29;20183;-94
2021/07/08 00:22:34;;;;;;;7.32;1.88;;;18.10;99.90;;;;;;4902499;29;20200;-95
2021/07/08 00:24:59;;;;;;;5.80;1.92;;;18.00;99.90;;;;;;4902641;29;20175;-95
2021/07/08 00:27:25;;;;;;;3.72;1.73;;;18.00;99.90;;;;;;4902386;29;20187;-95
2021/07/08 00:29:51;;;;;;;5.25;1.73;;;18.00;99.90;;;;;;4901787;29;20183;-95
2021/07/08 00:32:17;;;;;;;8.45;2.50;;;18.00;99.90;;;;;;4902487;29;20722;-95
2021/07/08 00:34:45;;;;;;;9.25;1.70;;;18.00;99.90;;;;;;4902577;29;20543;-95
2021/07/08 00:37:10;;;;;;;4.18;1.58;;;18.00;99.90;;;;;;4902521;29;20212;-95
2021/07/08 00:39:37;;;;;;;4.05;1.67;;;18.00;99.90;;;;;;4902258;29;20184;-95
2021/07/08 00:42:03;;;;;;;6.13;1.80;;;17.90;99.90;;;;;;4900987;29;20195;-94
2021/07/08 00:44:29;;;;;;;3.53;1.70;;;17.90;99.90;;;;;;4901352;29;20182;-95
2021/07/08 00:46:55;;;;;;;4.10;1.60;;;17.90;99.90;;;;;;4901339;29;20555;-95
2021/07/08 00:49:20;;;;;;;6.53;1.67;;;17.90;99.90;;;;;;4901180;29;20238;-95
2021/07/08 00:51:46;;;;;;;6.75;1.90;;;17.80;99.90;;;;;;4900958;29;20250;-94
2021/07/08 00:54:12;;;;;;;4.63;1.73;;;17.80;99.90;;;;;;4901203;29;20667;-95
2021/07/08 00:56:38;;;;;;;5.85;1.90;;;17.80;99.90;;;;;;4901778;29;20210;-95
2021/07/08 00:59:10;;;;;;;8.43;1.88;;;17.80;99.90;;;;;;4901812;29;20175;-95
2021/07/08 01:01:36;;;;;;;4.82;1.75;;;17.80;99.90;;;;;;5470275;23;20246;-96
2021/07/08 01:04:03;;;;;;;4.88;1.58;;;17.80;99.90;;;;;;4907107;29;20250;-95
2021/07/08 01:06:31;;;;;;;4.25;1.90;;;17.60;99.90;;;;;;4907534;29;20175;-96
2021/07/08 01:08:58;;;;;;;4.22;1.65;;;17.50;99.90;;;;;;4899827;29;20188;-96
2021/07/08 01:11:30;;;;;;;4.78;1.73;;;17.50;99.90;;;;;;4895852;29;20183;-96
2021/07/08 01:13:57;;;;;;;8.07;1.98;;;17.40;99.90;;;;;;4904871;29;20274;-96
2021/07/08 01:16:26;;;;;;;6.03;1.50;;;17.50;99.90;;;;;;4895151;29;20219;-96
2021/07/08 01:18:52;;;;;;;5.20;1.77;;;17.50;99.90;;;;;;4909391;29;20179;-96
2021/07/08 01:21:36;;;;;;;6.43;2.10;;;17.40;99.90;;;;;;4910638;29;20194;-96
2021/07/08 01:24:04;;;;;;;8.63;2.40;;;17.30;99.90;;;;;;4910901;29;20194;-96
2021/07/08 01:26:31;;;;;;;7.65;1.90;;;17.20;99.90;;;;;;4901880;29;20200;-96
2021/07/08 01:29:04;;;;;;;7.90;2.22;;;17.20;99.90;;;;;;4898911;29;20251;-96
2021/07/08 01:31:30;;;;;;;6.38;1.83;;;17.30;99.90;;;;;;4901000;29;20255;-95
2021/07/08 01:33:58;;;;;;;4.88;2.25;;;17.20;99.90;;;;;;4903714;29;20191;-96
2021/07/08 01:36:23;;;;;;;3.88;2.00;;;17.30;99.90;;;;;;4914863;29;20215;-96
2021/07/08 01:38:49;;;;;;;6.28;1.67;;;17.30;99.90;;;;;;4899898;29;20183;-96
2021/07/08 01:41:17;;;;;;;3.20;1.30;;;17.30;99.90;;;;;;4912063;29;20186;-96
2021/07/08 01:43:44;;;;;;;3.00;1.50;;;17.20;99.90;;;;;;4909646;29;20183;-96
2021/07/08 01:46:15;;;;;;;7.15;2.20;;;17.20;99.90;;;;;;4912281;29;20164;-96
2021/07/08 01:48:43;;;;;;;5.63;1.80;;;17.20;99.90;;;;;;4895884;29;20516;-96
2021/07/08 01:51:31;;;;;;;3.55;2.10;;;17.10;99.90;;;;;;4910308;29;20187;-95
2021/07/08 01:54:01;;;;;;;4.55;2.00;;;17.00;99.90;;;;;;4893091;29;20176;-95
2021/07/08 01:56:27;;;;;;;4.68;2.08;;;17.00;99.90;;;;;;4909966;29;20215;-95
2021/07/08 01:58:54;;;;;;;5.80;1.90;;;17.00;99.90;;;;;;4910247;29;20180;-96
2021/07/08 02:01:21;;;;;;;4.25;1.80;;;17.00;99.90;;;;;;4909586;29;20180;-96
2021/07/08 02:04:10;;;;;;;4.43;2.10;;;17.00;99.90;;;;;;4899783;29;20195;-96
2021/07/08 02:06:36;;;;;;;5.85;2.13;;;17.00;99.90;;;;;;4917739;29;20202;-96
2021/07/08 02:09:06;;;;;;;2.63;1.60;;;17.00;99.90;;;;;;4907314;29;20183;-96
2021/07/08 02:11:37;;;;;;;5.28;1.73;;;17.10;99.90;;;;;;4917411;29;20183;-96
2021/07/08 02:14:05;;;;;;;3.92;1.90;;;17.00;99.90;;;;;;4901188;29;20191;-96
2021/07/08 02:16:44;;;;;;;3.83;2.10;;;17.00;99.90;;;;;;4915919;29;20218;-96
2021/07/08 02:19:10;;;;;;;4.47;1.65;;;17.00;99.90;;;;;;4931527;29;20170;-96
2021/07/08 02:21:36;;;;;;;3.15;1.70;;;16.90;99.90;;;;;;4917931;29;20182;-95
2021/07/08 02:24:03;;;;;;;4.45;1.88;;;16.90;99.90;;;;;;4916850;29;20194;-95
2021/07/08 02:26:29;;;;;;;9.02;2.40;;;16.90;99.90;;;;;;4935653;29;20190;-96
2021/07/08 02:28:55;;;;;;;17.33;2.90;;;16.90;99.90;;;;;;4918232;29;20214;-95
2021/07/08 02:31:20;;;;;;;6.00;2.22;;;16.80;99.90;;;;;;4916811;29;20277;-95
2021/07/08 02:33:46;;;;;;;8.93;2.20;;;16.80;99.90;;;;;;4918560;29;20189;-95
2021/07/08 02:36:12;;;;;;;7.57;2.35;;;16.80;99.90;;;;;;4915565;29;20681;-94
2021/07/08 02:38:38;;;;;;;5.43;2.40;;;16.70;99.90;;;;;;4917016;29;20197;-95
2021/07/08 02:41:06;;;;;;;7.15;2.42;;;16.60;99.90;;;;;;4911619;29;20637;-94
2021/07/08 02:43:38;;;;;;;6.25;2.60;;;16.50;99.90;;;;;;4912909;29;20182;-94
2021/07/08 02:46:04;;;;;;;6.70;2.25;;;16.50;99.90;;;;;;4935750;29;20171;-95
2021/07/08 02:48:30;;;;;;;4.45;2.35;;;16.50;99.90;;;;;;4918757;29;20264;-95
2021/07/08 02:50:57;;;;;;;5.35;2.17;;;16.60;99.90;;;;;;4915493;29;20183;-95
2021/07/08 02:53:29;;;;;;;5.25;2.08;;;16.60;99.90;;;;;;4930478;29;20193;-96
2021/07/08 02:55:55;;;;;;;13.65;2.65;;;16.60;99.90;;;;;;4918199;29;20287;-96
2021/07/08 02:58:22;;;;;;;7.75;2.17;;;16.60;99.90;;;;;;4917040;29;20183;-96
2021/07/08 03:00:50;;;;;;;7.20;2.72;;;16.60;99.90;;;;;;4917052;29;20209;-96
2021/07/08 03:03:17;;;;;;;10.00;2.33;;;16.50;99.90;;;;;;4909702;29;20294;-96
2021/07/08 03:05:44;;;;;;;6.38;2.42;;;16.60;99.90;;;;;;4910633;29;20175;-96
2021/07/08 03:08:11;;;;;;;6.55;2.10;;;16.50;99.90;;;;;;4907440;29;20271;-96
2021/07/08 03:10:38;;;;;;;8.38;2.58;;;16.50;99.90;;;;;;4892529;29;20187;-96
2021/07/08 03:13:05;;;;;;;3.70;2.40;;;16.50;99.90;;;;;;4909968;29;20188;-96
2021/07/08 03:15:31;;;;;;;7.25;2.40;;;16.50;99.90;;;;;;4894719;29;20207;-96
2021/07/08 03:17:57;;;;;;;6.40;2.40;;;16.50;99.90;;;;;;4907907;29;20195;-96
2021/07/08 03:20:26;;;;;;;7.28;2.40;;;16.40;99.90;;;;;;4892468;29;20192;-95
2021/07/08 03:22:52;;;;;;;5.88;2.25;;;16.30;99.90;;;;;;4906806;29;20623;-94
2021/07/08 03:25:24;;;;;;;5.63;2.40;;;16.30;99.90;;;;;;4908912;29;20305;-96
2021/07/08 03:27:51;;;;;;;6.25;2.53;;;16.40;99.90;;;;;;4898508;29;20254;-93
2021/07/08 03:30:20;;;;;;;10.52;2.28;;;16.50;99.90;;;;;;4914377;29;20184;-95
2021/07/08 03:32:50;;;;;;;6.00;2.08;;;16.50;99.90;;;;;;4908211;29;20184;-95
2021/07/08 03:35:16;;;;;;;6.38;2.10;;;16.60;99.90;;;;;;4905969;29;20247;-94
2021/07/08 03:37:43;;;;;;;6.25;2.28;;;16.50;99.90;;;;;;4907748;29;20577;-94
2021/07/08 03:40:16;;;;;;;10.48;2.65;;;16.50;99.90;;;;;;4905551;29;20176;-96
2021/07/08 03:42:49;;;;;;;14.90;2.83;;;16.40;99.90;;;;;;4891527;29;20184;-95
2021/07/08 03:45:17;;;;;;;8.63;2.50;;;16.50;99.90;;;;;;4905883;29;20279;-96
2021/07/08 03:47:44;;;;;;;12.50;2.67;;;16.60;99.90;;;;;;4889984;29;20248;-94
2021/07/08 03:50:14;;;;;;;6.72;2.00;;;16.60;99.90;;;;;;4889962;29;20180;-95
2021/07/08 03:52:44;;;;;;;5.10;2.22;;;16.70;99.90;;;;;;4906106;29;20183;-94
2021/07/08 03:55:14;;;;;;;7.05;2.28;;;16.70;99.90;;;;;;4907061;29;20188;-94
2021/07/08 03:58:01;;;;;;;10.27;2.97;;;16.80;99.90;;;;;;4888912;29;20239;-95
2021/07/08 04:00:33;;;;;;;5.65;2.38;;;16.80;99.90;;;;;;4891848;29;20215;-96
2021/07/08 04:03:13;;;;;;;12.50;2.72;;;16.80;99.90;;;;;;4905314;29;20239;-95
2021/07/08 04:05:40;;;;;;;8.15;3.00;;;16.90;99.90;;;;;;4892540;29;20295;-95
2021/07/08 04:08:07;;;;;;;15.70;3.40;;;16.90;99.90;;;;;;4909931;29;20191;-95
2021/07/08 04:10:36;;;;;;;7.15;2.65;;;16.90;99.90;;;;;;4892743;29;20221;-97
2021/07/08 04:13:04;;;;;;;9.52;3.35;;;17.00;99.90;;;;;;4892979;29;20198;-95
2021/07/08 04:15:30;;;;;;;11.55;3.33;;;17.10;99.90;;;;;;4890254;29;20183;-96
2021/07/08 04:17:56;;;;;;;7.93;2.78;;;17.20;99.90;;;;;;4892305;29;20255;-96
2021/07/08 04:20:24;;;;;;;6.30;3.10;;;17.30;99.90;;;;;;4891047;29;20183;-96
2021/07/08 04:22:50;;;;;;;5.43;2.92;;;17.40;99.90;;;;;;4893394;29;20183;-96
2021/07/08 04:25:17;;;;;;;5.60;2.72;;;17.50;99.90;;;;;;4894109;29;20179;-96
2021/07/08 04:27:44;;;;;;;7.88;2.80;;;17.60;99.90;;;;;;4892060;29;20179;-96
2021/07/08 04:30:11;;;;;;;4.85;2.70;;;17.60;99.90;;;;;;4892789;29;20519;-95
2021/07/08 04:32:37;;;;;;;6.40;2.67;;;17.60;99.90;;;;;;4894284;29;20183;-95
2021/07/08 04:35:06;;;;;;;4.25;2.63;;;17.60;99.90;;;;;;4898512;29;20193;-96
2021/07/08 04:37:39;;;;;;;8.35;2.92;;;17.70;99.90;;;;;;4901918;29;20218;-95
2021/07/08 04:40:07;;;;;;;5.50;3.05;;;17.70;99.90;;;;;;4901383;29;20210;-95
2021/07/08 04:42:36;;;;;;;6.07;2.60;;;17.60;99.90;;;;;;4916248;29;20171;-96
2021/07/08 04:45:15;;;;;;;6.88;2.67;;;17.60;99.90;;;;;;4916964;29;20183;-96
2021/07/08 04:47:46;;;;;;;7.43;3.08;;;17.60;99.90;;;;;;4915637;29;20191;-96
2021/07/08 04:50:16;;;;;;;8.27;3.10;;;17.70;99.90;;;;;;4901680;29;20178;-96
2021/07/08 04:52:43;;;;;;;8.75;3.20;;;17.70;99.90;;;;;;4916632;29;20175;-96
2021/07/08 04:55:25;;;;;;;4.15;2.92;;;17.70;99.90;;;;;;4918566;29;20187;-96
2021/07/08 04:57:56;;;;;;;11.80;2.78;;;17.70;99.90;;;;;;4918904;29;20187;-96
2021/07/08 05:00:22;;;;;;;6.55;3.20;;;17.70;99.90;;;;;;4911650;29;20183;-96
2021/07/08 05:02:50;;;;;;;6.65;2.70;;;17.70;99.90;;;;;;4894765;29;20346;-96
2021/07/08 05:05:17;;;;;;;7.20;3.03;;;17.80;99.90;;;;;;4895304;29;20179;-96
2021/07/08 05:07:43;;;;;;;8.73;3.20;;;17.80;99.90;;;;;;4894885;29;20653;-96
2021/07/08 05:10:12;;;;;;;4.45;2.85;;;17.80;99.90;;;;;;4896544;29;20183;-96
2021/07/08 05:12:38;;;;;;;9.68;3.13;;;17.80;99.90;;;;;;4895246;29;20187;-96
2021/07/08 05:15:09;;;;;;;7.28;3.55;;;17.80;99.90;;;;;;4896182;29;20280;-96
2021/07/08 05:17:35;;;;;;;8.40;2.92;;;17.70;99.90;;;;;;4894690;29;20225;-96
2021/07/08 05:20:02;;;;;;;8.90;3.22;;;17.70;99.90;;;;;;4897441;29;20190;-96
2021/07/08 05:22:34;;;;;;;6.05;2.80;;;17.70;99.90;;;;;;4898975;29;20211;-96
2021/07/08 05:25:00;;;;;;;5.38;2.70;;;17.70;99.90;;;;;;4896821;29;20247;-96
2021/07/08 05:27:26;;;;;;;5.70;2.72;;;17.80;99.90;;;;;;4910693;29;20179;-96
2021/07/08 05:29:52;;;;;;;5.72;2.78;;;17.90;99.90;;;;;;4910159;29;20529;-93
2021/07/08 05:32:18;;;;;;;6.25;3.20;;;17.90;99.90;;;;;;4895787;29;20183;-96
2021/07/08 05:34:45;;;;;;;9.00;3.63;;;18.00;99.90;;;;;;4895633;29;20192;-94
2021/07/08 05:37:10;;;;;;;7.03;3.00;;;18.00;99.90;;;;;;4897573;29;20215;-95
2021/07/08 05:39:36;;;;;;;5.15;2.92;;;18.10;99.90;;;;;;4914755;29;20231;-95
2021/07/08 05:42:03;;;;;;;9.35;3.47;;;18.20;99.90;;;;;;4899091;29;20187;-94
2021/07/08 05:44:30;;;;;;;7.07;3.60;;;18.20;99.90;;;;;;4898362;29;20183;-95
2021/07/08 05:46:55;;;;;;;7.40;3.53;;;18.30;99.90;;;;;;4895433;29;20194;-95
2021/07/08 05:49:23;;;;;;;8.25;3.45;;;18.30;99.90;;;;;;4898523;29;20195;-95
2021/07/08 05:51:50;;;;;;;5.03;3.40;;;18.40;99.90;;;;;;4896594;29;20199;-96
2021/07/08 05:54:22;;;;;;;6.00;3.78;;;18.50;99.90;;;;;;4912315;29;20254;-96
2021/07/08 05:56:49;;;;;;;5.85;3.03;;;18.60;99.90;;;;;;4897021;29;20230;-96
2021/07/08 05:59:19;;;;;;;6.95;3.92;;;18.60;99.90;;;;;;4912601;29;20183;-96
2021/07/08 06:01:44;;;;;;;6.30;3.95;;;18.60;99.90;;;;;;4895041;29;20254;-96
2021/07/08 06:04:13;;;;;;;5.45;3.58;;;18.70;99.90;;;;;;4893648;29;20171;-96
2021/07/08 06:06:39;;;;;;;8.50;4.20;;;18.70;99.90;;;;;;4895480;29;20183;-95
2021/07/08 06:09:06;;;;;;;8.40;4.35;;;18.70;99.90;;;;;;4900868;29;20175;-96
2021/07/08 06:11:31;;;;;;;7.78;4.10;;;18.70;99.90;;;;;;4899051;29;20610;-96
2021/07/08 06:13:58;;;;;;;8.77;3.92;;;18.70;99.90;;;;;;4913288;29;20242;-96
2021/07/08 06:16:24;;;;;;;8.40;3.90;;;18.80;99.90;;;;;;4903289;29;20224;-96
2021/07/08 06:18:51;;;;;;;6.10;3.33;;;18.80;99.90;;;;;;4923627;29;20203;-95
2021/07/08 06:21:17;;;;;;;11.63;4.50;;;18.80;99.90;;;;;;4923472;29;20190;-96
2021/07/08 06:23:43;;;;;;;7.00;4.45;;;18.80;99.90;;;;;;4906343;29;20191;-96
2021/07/08 06:26:08;;;;;;;7.82;4.50;;;18.80;99.90;;;;;;4917891;29;20214;-96
2021/07/08 06:28:59;;;;;;;6.03;3.80;;;18.80;99.90;;;;;;4922177;29;20187;-96
2021/07/08 06:31:25;;;;;;;9.55;4.55;;;18.90;99.90;;;;;;4925299;29;20168;-96
2021/07/08 06:33:55;;;;;;;12.98;4.07;;;18.90;99.90;;;;;;4921899;29;20198;-96
2021/07/08 06:36:26;;;;;;;8.02;4.20;;;19.00;99.90;;;;;;4917372;29;20330;-94
2021/07/08 06:38:53;;;;;;;5.78;4.10;;;19.10;99.90;;;;;;4899663;29;20234;-95
2021/07/08 06:41:20;;;;;;;9.15;5.38;;;19.20;99.90;;;;;;4918836;29;20190;-95
2021/07/08 06:43:47;;;;;;;5.63;3.85;;;19.30;99.90;;;;;;5040834;23;20269;-96
2021/07/08 06:46:17;;;;;;;6.30;4.50;;;19.40;99.90;;;;;;4937744;29;20233;-94
2021/07/08 06:48:43;;;;;;;5.63;4.47;;;19.50;99.90;;;;;;4937000;29;20167;-94
2021/07/08 06:51:11;;;;;;;5.60;4.50;;;19.70;99.90;;;;;;4936985;29;20218;-95
2021/07/08 06:53:39;;;;;;;8.98;4.75;;;19.80;99.90;;;;;;4935396;29;20180;-96
2021/07/08 06:56:05;;;;;;;6.38;4.65;;;19.90;99.90;;;;;;5218469;23;20250;-96
2021/07/08 06:58:31;;;;;;;6.43;4.50;;;19.90;99.90;;;;;;4923309;29;20190;-96
2021/07/08 07:00:58;;;;;;;7.03;4.22;;;19.90;99.90;;;;;;4906706;29;20230;-96
2021/07/08 07:03:34;;;;;;;6.07;4.18;;;20.00;99.90;;;;;;4938661;29;20188;-96
2021/07/08 07:06:00;;;;;;;5.43;4.20;;;20.00;99.90;;;;;;4919651;29;20174;-96
2021/07/08 07:08:29;;;;;;;7.50;5.15;;;20.10;99.90;;;;;;4886913;29;20187;-96
2021/07/08 07:10:57;;;;;;;8.18;4.95;;;20.10;99.90;;;;;;4923176;29;20195;-96
2021/07/08 07:13:23;;;;;;;9.00;5.35;;;20.10;99.90;;;;;;4914225;29;20176;-96
2021/07/08 07:15:53;;;;;;;7.75;4.47;;;20.00;99.90;;;;;;4920426;29;20198;-96
2021/07/08 07:18:27;;;;;;;4.65;3.50;;;20.10;99.90;;;;;;4916167;29;20251;-96
2021/07/08 07:20:53;;;;;;;5.60;4.10;;;20.20;99.90;;;;;;4936825;29;20194;-94
2021/07/08 07:23:19;;;;;;;6.65;3.72;;;20.40;99.90;;;;;;4930555;29;20186;-94
2021/07/08 07:25:50;;;;;;;8.07;3.65;;;20.60;99.90;;;;;;4932928;29;20520;-96
2021/07/08 07:28:22;;;;;;;12.98;3.67;;;20.80;99.90;;;;;;4930747;29;20183;-95
2021/07/08 07:30:50;;;;;;;6.60;3.67;;;21.00;99.90;;;;;;4932029;29;20174;-93
2021/07/08 07:33:16;;;;;;;4.97;3.05;;;21.10;99.90;;;;;;4881209;29;20183;-91
2021/07/08 07:35:43;;;;;;;5.63;3.25;;;21.20;99.90;;;;;;4892583;29;20198;-94
2021/07/08 07:38:11;;;;;;;6.70;2.80;;;21.50;99.90;;;;;;4889511;29;20235;-95
2021/07/08 07:40:39;;;;;;;6.18;3.40;;;21.60;99.90;;;;;;4883862;29;20637;-93
2021/07/08 07:43:05;;;;;;;4.13;2.83;;;21.60;99.90;;;;;;4883371;29;20191;-96
2021/07/08 07:45:31;;;;;;;6.43;3.35;;;21.50;99.90;;;;;;4884023;29;20251;-95
2021/07/08 07:47:57;;;;;;;7.32;3.65;;;21.50;99.90;;;;;;4883355;29;20175;-95
2021/07/08 07:50:24;;;;;;;5.35;3.58;;;21.50;99.90;;;;;;4885539;29;20179;-96
2021/07/08 07:52:52;;;;;;;6.10;3.50;;;21.60;99.90;;;;;;4886507;29;20174;-95
2021/07/08 07:55:18;;;;;;;4.78;3.40;;;21.60;99.90;;;;;;4884481;29;20190;-96
2021/07/08 07:57:44;;;;;;;19.52;4.25;;;21.60;99.90;;;;;;4881456;29;20296;-96
2021/07/08 08:00:11;;;;;;;7.30;4.40;;;21.60;99.90;;;;;;4881772;29;20187;-96
2021/07/08 08:02:38;;;;;;;89.47;6.65;;;21.70;99.90;;;;;;4880408;29;20226;-96
2021/07/08 08:10:26;;;;;;;9.60;4.25;;;21.70;99.90;;;;;;4884263;29;20175;-94
2021/07/08 08:12:52;;;;;;;9.85;4.20;;;21.60;99.90;;;;;;4886609;29;20176;-96
2021/07/08 08:15:19;;;;;;;5.43;3.30;;;21.70;99.90;;;;;;4885280;29;20269;-95
2021/07/08 08:17:46;;;;;;;10.95;3.90;;;21.60;99.90;;;;;;4883978;29;20568;-94
2021/07/08 08:20:13;;;;;;;27.67;4.45;;;21.70;99.90;;;;;;4883706;29;20679;-95
2021/07/08 08:22:41;;;;;;;11.10;3.35;;;21.70;99.90;;;;;;4885964;29;20270;-96
2021/07/08 08:25:09;;;;;;;5.97;3.53;;;21.70;99.90;;;;;;4883584;29;20187;-96
2021/07/08 08:27:35;;;;;;;5.78;3.10;;;21.70;99.90;;;;;;4883865;29;20188;-96
2021/07/08 08:30:00;;;;;;;7.00;3.42;;;21.80;99.90;;;;;;4866816;29;20194;-95
2021/07/08 08:32:26;;;;;;;5.45;3.25;;;21.90;99.90;;;;;;4873459;29;20196;-96
2021/07/08 08:34:52;;;;;;;6.28;2.95;;;22.00;99.90;;;;;;4868262;29;20274;-96
2021/07/08 08:37:18;;;;;;;6.22;3.20;;;22.00;99.90;;;;;;4875630;29;20879;-96
2021/07/08 08:39:44;;;;;;;5.18;3.30;;;22.00;99.90;;;;;;4854220;29;20240;-95
2021/07/08 08:42:09;;;;;;;5.57;3.30;;;22.00;99.90;;;;;;4861691;29;20235;-96
2021/07/08 08:44:37;;;;;;;6.20;3.45;;;22.00;99.90;;;;;;4879566;29;20279;-96
2021/07/08 08:47:07;;;;;;;19.08;3.95;;;22.00;99.90;;;;;;4866627;29;20604;-96
2021/07/08 08:49:36;;;;;;;6.80;3.08;;;21.90;99.90;;;;;;4878176;29;20188;-96
2021/07/08 08:52:02;;;;;;;4.50;3.00;;;21.90;99.90;;;;;;4863481;29;20238;-95
2021/07/08 08:54:27;;;;;;;5.22;3.05;;;22.00;99.90;;;;;;4878588;29;20180;-96
2021/07/08 08:56:53;;;;;;;8.07;3.45;;;21.90;99.90;;;;;;4879380;29;20247;-95
2021/07/08 08:59:19;;;;;;;9.98;3.38;;;21.90;99.90;;;;;;4914328;29;20200;-93
2021/07/08 09:02:06;;;;;;;3.72;2.70;;;21.90;99.90;;;;;;4910493;29;20281;-93
2021/07/08 09:04:33;;;;;;;9.00;3.05;;;22.00;99.90;;;;;;4891050;29;20257;-95
2021/07/08 09:07:36;;;;;;;7.63;2.95;;;22.10;99.90;;;;;;4923041;29;20202;-93
2021/07/08 09:10:15;;;;;;;11.10;3.08;;;22.10;99.90;;;;;;4893132;29;20222;-92
2021/07/08 09:12:41;;;;;;;3.90;2.60;;;22.20;99.90;;;;;;4921024;29;20184;-95
2021/07/08 09:15:34;;;;;;;3.97;2.28;;;22.30;99.90;;;;;;4920927;29;20210;-95
2021/07/08 09:18:02;;;;;;;5.72;2.80;;;22.30;99.90;;;;;;4910694;29;20203;-95
2021/07/08 09:20:30;;;;;;;3.75;2.28;;;22.30;99.90;;;;;;4922405;29;20200;-95
2021/07/08 09:23:17;;;;;;;6.95;2.50;;;22.40;99.90;;;;;;4924438;29;20176;-96
2021/07/08 09:25:59;;;;;;;4.10;2.50;;;22.40;99.90;;;;;;4905850;29;20168;-95
2021/07/08 09:28:26;;;;;;;5.07;2.08;;;22.50;99.90;;;;;;4937285;29;20235;-96
2021/07/08 09:31:13;;;;;;;4.93;2.00;;;22.50;99.90;;;;;;4940437;23;20219;-96
2021/07/08 09:36:22;;;;;;;3.38;2.10;;;22.60;99.90;;;;;;5670238;23;20218;-96
2021/07/08 09:38:55;;;;;;;4.82;1.83;;;22.60;99.90;;;;;;4923678;29;20186;-96
2021/07/08 09:41:22;;;;;;;19.27;2.55;;;22.60;99.90;;;;;;4922855;29;20186;-96
2021/07/08 09:43:49;;;;;;;9.25;2.03;;;22.50;99.90;;;;;;4925574;29;20187;-96
2021/07/08 09:46:34;;;;;;;4.13;1.70;;;22.50;99.90;;;;;;4925684;29;20242;-95
2021/07/08 09:51:41;;;;;;;4.50;2.00;;;22.50;99.90;;;;;;5088499;23;20233;-96
2021/07/08 09:54:24;;;;;;;2.17;1.80;;;22.40;99.90;;;;;;4958189;28;20177;-95
2021/07/08 09:56:59;;;;;;;5.68;1.80;;;22.50;99.90;;;;;;4943035;29;20285;-95
2021/07/08 09:59:46;;;;;;;4.68;1.83;;;22.50;99.90;;;;;;4955340;29;20550;-96
2021/07/08 10:02:32;;;;;;;6.55;2.00;;;22.50;99.90;;;;;;4935938;29;20178;-96
2021/07/08 10:05:01;;;;;;;4.30;2.03;;;22.60;99.90;;;;;;4925382;29;20200;-96
2021/07/08 10:10:03;;;;;;;2.63;1.83;;;22.60;99.90;;;;;;5069459;23;20233;-93
2021/07/08 10:12:30;;;;;;;2.75;1.83;;;22.50;99.90;;;;;;4919009;29;20193;-93
2021/07/08 10:15:00;;;;;;;3.83;1.92;;;22.50;99.90;;;;;;4919472;29;20178;-94
2021/07/08 10:17:30;;;;;;;3.35;1.73;;;22.50;99.90;;;;;;4895292;29;20214;-94
2021/07/08 10:19:56;;;;;;;3.03;1.52;;;22.50;99.90;;;;;;4905384;29;20269;-96
2021/07/08 10:22:24;;;;;;;5.57;1.90;;;22.50;99.90;;;;;;4891205;29;20256;-94
2021/07/08 10:24:54;;;;;;;6.22;2.15;;;22.50;99.90;;;;;;4906611;29;20202;-94
2021/07/08 10:27:21;;;;;;;3.78;1.98;;;22.60;99.90;;;;;;4908807;29;20277;-94
2021/07/08 10:29:50;;;;;;;4.55;1.73;;;22.70;99.90;;;;;;4922717;29;20177;-94
2021/07/08 10:32:17;;;;;;;3.58;1.67;;;22.80;99.90;;;;;;4922035;29;20190;-94
2021/07/08 10:34:49;;;;;;;2.97;1.70;;;23.00;99.90;;;;;;4906421;29;20270;-95
2021/07/08 10:37:36;;;;;;;2.58;1.42;;;23.10;99.90;;;;;;4922278;29;20214;-94
2021/07/08 10:40:04;;;;;;;4.10;2.00;;;23.30;99.90;;;;;;4922038;29;20186;-93
2021/07/08 10:42:53;;;;;;;3.55;2.00;;;23.40;99.90;;;;;;4921616;29;20703;-93
2021/07/08 10:45:21;;;;;;;5.85;1.80;;;23.60;99.90;;;;;;4922672;29;20273;-94
2021/07/08 10:47:51;;;;;;;3.30;1.80;;;23.90;99.90;;;;;;4922554;29;20190;-94
2021/07/08 10:50:47;;;;;;;7.50;2.53;;;24.10;99.90;;;;;;4923227;29;20174;-94
2021/07/08 10:53:34;;;;;;;7.57;1.90;;;24.30;99.90;;;;;;4918949;29;20201;-93
2021/07/08 10:56:09;;;;;;;4.40;1.80;;;24.30;99.90;;;;;;4921730;29;20708;-93
2021/07/08 10:58:54;;;;;;;3.85;1.80;;;24.40;99.90;;;;;;4922370;29;20185;-91
2021/07/08 11:01:26;;;;;;;6.47;2.17;;;24.50;99.90;;;;;;4938599;29;20192;-94
2021/07/08 11:04:05;;;;;;;4.70;1.55;;;24.60;99.90;;;;;;4921872;29;20586;-94
2021/07/08 11:06:33;;;;;;;4.88;1.70;;;24.70;99.90;;;;;;4922326;29;20590;-94
2021/07/08 11:09:10;;;;;;;3.65;1.65;;;24.70;99.90;;;;;;4921442;29;20225;-94
2021/07/08 11:11:38;;;;;;;5.07;2.05;;;24.80;99.90;;;;;;4921456;29;20178;-93
2021/07/08 11:14:07;;;;;;;4.32;1.73;;;25.00;99.90;;;;;;4939802;29;20178;-94
2021/07/08 11:16:54;;;;;;;4.63;1.60;;;25.00;99.90;;;;;;4921603;29;20264;-95
2021/07/08 11:19:20;;;;;;;4.00;1.50;;;25.10;99.90;;;;;;4921736;29;20189;-95
2021/07/08 11:21:54;;;;;;;7.72;1.85;;;25.00;99.90;;;;;;4921401;29;20178;-95
2021/07/08 11:24:24;;;;;;;5.22;1.77;;;25.00;99.90;;;;;;4921463;29;20578;-95
2021/07/08 11:26:52;;;;;;;4.75;1.77;;;25.10;99.90;;;;;;4921176;29;20170;-95
2021/07/08 11:29:57;;;;;;;7.03;1.63;;;25.30;99.90;;;;;;4921396;29;20178;-96
2021/07/08 11:32:44;;;;;;;2.30;1.30;;;25.20;99.60;;;;;;4920187;29;20182;-94
2021/07/08 11:35:16;;;;;;;3.67;1.20;;;25.20;99.90;;;;;;4922280;29;20267;-96
2021/07/08 11:37:51;;;;;;;3.50;1.70;;;25.20;99.90;;;;;;4921238;29;20237;-96
2021/07/08 11:40:19;;;;;;;5.50;1.67;;;25.20;99.90;;;;;;4921124;29;20169;-96
2021/07/08 11:42:47;;;;;;;3.58;1.40;;;25.40;99.90;;;;;;4921385;29;20221;-95
2021/07/08 11:45:18;;;;;;;3.72;1.50;;;25.60;99.90;;;;;;4920613;29;20201;-95
2021/07/08 11:47:46;;;;;;;5.35;1.70;;;25.80;99.90;;;;;;4921257;29;20221;-95
2021/07/08 11:50:26;;;;;;;1.95;1.33;;;25.70;99.90;;;;;;4922410;29;20185;-95
2021/07/08 11:53:09;;;;;;;3.80;1.60;;;25.70;99.90;;;;;;4921700;29;20640;-96
2021/07/08 11:55:35;;;;;;;2.00;1.50;;;25.60;99.90;;;;;;4921689;29;20190;-96
2021/07/08 11:58:04;;;;;;;3.60;1.23;;;25.50;99.90;;;;;;4921162;29;20189;-95
2021/07/08 12:00:33;;;;;;;2.60;1.30;;;25.30;99.90;;;;;;4921060;29;20182;-95
2021/07/08 12:03:00;;;;;;;5.13;1.60;;;25.10;99.90;;;;;;4920913;29;20193;-95
2021/07/08 12:05:26;;;;;;;6.35;1.60;;;25.00;99.90;;;;;;4920929;29;20189;-95
2021/07/08 12:10:29;;;;;;;2.10;1.25;;;25.00;99.30;;;;;;4938217;29;20197;-95
2021/07/08 12:12:56;;;;;;;2.05;1.40;;;25.10;99.90;;;;;;4921710;29;20174;-96
2021/07/08 12:15:23;;;;;;;3.45;1.50;;;25.10;99.00;;;;;;4921512;29;20213;-94
2021/07/08 12:18:00;;;;;;;4.18;1.40;;;25.30;99.90;;;;;;4920780;29;20249;-93
2021/07/08 12:20:35;;;;;;;2.38;1.10;;;25.40;99.90;;;;;;4920859;29;20250;-94
2021/07/08 12:23:03;;;;;;;3.45;1.20;;;25.30;98.60;;;;;;4920564;29;20213;-93
2021/07/08 12:25:30;;;;;;;1.80;1.38;;;25.30;99.80;;;;;;4920804;29;20178;-94
2021/07/08 12:28:01;;;;;;;4.53;1.70;;;25.20;99.90;;;;;;4920821;29;20182;-94
2021/07/08 12:30:28;;;;;;;4.65;1.40;;;25.40;99.90;;;;;;4921218;29;20186;-96
2021/07/08 12:33:08;;;;;;;2.30;1.38;;;25.40;99.70;;;;;;4921294;29;20190;-94
2021/07/08 12:35:44;;;;;;;2.25;1.30;;;25.30;99.50;;;;;;4916555;29;20614;-95
2021/07/08 12:38:18;;;;;;;3.65;1.30;;;25.40;99.50;;;;;;4901509;29;20191;-94
2021/07/08 12:40:49;;;;;;;4.15;1.45;;;25.50;98.70;;;;;;4917544;29;20170;-96
2021/07/08 12:43:18;;;;;;;3.75;1.30;;;25.50;99.20;;;;;;4916989;29;20186;-95
2021/07/08 12:45:45;;;;;;;3.28;1.40;;;25.40;99.40;;;;;;4920766;29;20237;-95
2021/07/08 12:48:23;;;;;;;10.05;1.80;;;25.40;99.70;;;;;;4922153;29;20182;-94
2021/07/08 12:50:49;;;;;;;4.93;1.38;;;25.20;99.20;;;;;;4920731;29;20182;-93
2021/07/08 12:53:16;;;;;;;6.93;1.60;;;25.10;99.90;;;;;;4920186;29;20506;-93
2021/07/08 12:55:52;;;;;;;3.55;1.63;;;25.00;99.90;;;;;;4939108;29;20170;-94
2021/07/08 12:58:28;;;;;;;2.10;1.58;;;25.00;99.90;;;;;;4924004;29;20496;-94
2021/07/08 13:01:06;;;;;;;3.60;1.67;;;24.90;99.90;;;;;;4924209;29;20178;-95
2021/07/08 13:03:35;;;;;;;2.08;1.52;;;24.90;99.90;;;;;;4941173;29;20546;-93
2021/07/08 13:06:08;;;;;;;3.78;1.70;;;24.80;99.90;;;;;;4924141;29;20182;-94
2021/07/08 13:08:34;;;;;;;3.15;1.70;;;24.80;99.90;;;;;;4923325;29;20700;-94
2021/07/08 13:11:10;;;;;;;2.83;1.98;;;24.70;99.90;;;;;;4924000;29;20182;-94
2021/07/08 13:13:37;;;;;;;2.78;1.95;;;24.60;99.90;;;;;;4923896;29;20173;-95